createdAt,value
2018-03-08T00:00:18.401Z,3.90
2018-03-08T00:02:46.656Z,3.80
2018-03-08T00:05:20.759Z,3.90
2018-03-08T00:07:49.036Z,3.90
2018-03-08T00:10:17.243Z,3.90
2018-03-08T00:12:45.452Z,3.90
2018-03-08T00:15:13.732Z,3.90
2018-03-08T00:17:42.001Z,3.90
2018-03-08T00:20:10.196Z,3.90
2018-03-08T00:22:38.457Z,3.90
2018-03-08T00:25:06.715Z,3.90
2018-03-08T00:27:35.104Z,3.90
2018-03-08T00:30:03.318Z,3.90
2018-03-08T00:32:31.525Z,3.90
2018-03-08T00:34:59.783Z,3.80
2018-03-08T00:37:27.991Z,3.80
2018-03-08T00:39:56.996Z,3.80
2018-03-08T00:42:25.776Z,3.80
2018-03-08T00:44:54.057Z,3.80
2018-03-08T00:47:22.262Z,3.80
2018-03-08T00:49:50.520Z,3.80
2018-03-08T00:52:18.741Z,3.70
2018-03-08T00:54:47.606Z,3.70
2018-03-08T00:57:15.849Z,3.70
2018-03-08T01:02:44.549Z,3.70
2018-03-08T01:05:12.821Z,3.60
2018-03-08T01:07:41.063Z,3.50
2018-03-08T01:10:19.818Z,3.60
2018-03-08T01:13:18.423Z,3.50
2018-03-08T01:15:46.786Z,3.50
2018-03-08T01:18:14.991Z,3.50
2018-03-08T01:20:43.191Z,3.50
2018-03-08T01:23:11.456Z,3.40
2018-03-08T01:25:39.681Z,3.40
2018-03-08T01:28:20.776Z,3.40
2018-03-08T01:30:49.148Z,3.40
2018-03-08T01:33:17.409Z,3.40
2018-03-08T01:35:45.793Z,3.40
2018-03-08T01:38:14.017Z,3.30
2018-03-08T01:43:42.514Z,3.30
2018-03-08T01:46:19.028Z,3.30
2018-03-08T01:48:47.270Z,3.20
2018-03-08T01:51:15.558Z,3.20
2018-03-08T01:53:44.546Z,3.20
2018-03-08T01:56:19.562Z,3.20
2018-03-08T01:58:47.817Z,3.20
2018-03-08T02:01:16.057Z,3.20
2018-03-08T02:03:44.305Z,3.20
2018-03-08T02:06:13.357Z,3.20
2018-03-08T02:08:41.696Z,3.20
2018-03-08T02:11:19.233Z,3.10
2018-03-08T02:13:47.564Z,3.10
2018-03-08T02:16:15.781Z,3.10
2018-03-08T02:18:44.002Z,3.10
2018-03-08T02:21:13.021Z,3.10
2018-03-08T02:26:41.380Z,3.10
2018-03-08T02:29:09.624Z,3.10
2018-03-08T02:31:37.869Z,3.10
2018-03-08T02:34:19.200Z,3.10
2018-03-08T02:36:48.163Z,3.00
2018-03-08T02:39:16.422Z,3.10
2018-03-08T02:41:44.709Z,3.00
2018-03-08T02:44:12.958Z,3.00
2018-03-08T02:46:41.213Z,3.00
2018-03-08T02:49:11.145Z,3.00
2018-03-08T02:54:41.111Z,2.90
2018-03-08T02:57:09.330Z,2.90
2018-03-08T02:59:38.458Z,2.90
2018-03-08T03:02:07.578Z,2.90
2018-03-08T03:04:35.796Z,2.90
2018-03-08T03:07:04.953Z,2.90
2018-03-08T03:09:33.165Z,2.90
2018-03-08T03:12:02.180Z,2.80
2018-03-08T03:14:30.466Z,2.80
2018-03-08T03:16:58.936Z,2.80
2018-03-08T03:19:27.244Z,2.80
2018-03-08T03:21:55.898Z,2.80
2018-03-08T03:24:24.156Z,2.80
2018-03-08T03:26:53.197Z,2.80
2018-03-08T03:29:21.473Z,2.70
2018-03-08T03:31:49.720Z,2.70
2018-03-08T03:34:18.841Z,2.70
2018-03-08T03:36:48.205Z,2.70
2018-03-08T03:39:18.056Z,2.70
2018-03-08T03:41:46.913Z,2.70
2018-03-08T03:44:15.169Z,2.70
2018-03-08T03:46:44.275Z,2.60
2018-03-08T03:49:13.381Z,2.60
2018-03-08T03:51:41.600Z,2.60
2018-03-08T03:54:09.991Z,2.70
2018-03-08T03:56:38.295Z,2.70
2018-03-08T03:59:07.437Z,2.80
2018-03-08T04:01:35.649Z,2.80
2018-03-08T04:04:03.951Z,2.90
2018-03-08T04:06:32.233Z,2.90
2018-03-08T04:09:00.516Z,2.80
2018-03-08T04:11:28.734Z,2.80
2018-03-08T04:13:57.157Z,2.80
2018-03-08T04:16:25.443Z,2.80
2018-03-08T04:18:54.155Z,2.80
2018-03-08T04:21:22.552Z,2.90
2018-03-08T04:23:50.762Z,2.90
2018-03-08T04:26:19.039Z,2.90
2018-03-08T04:29:17.261Z,2.90
2018-03-08T04:31:45.475Z,2.80
2018-03-08T04:34:14.484Z,2.80
2018-03-08T04:36:43.590Z,2.90
2018-03-08T04:39:11.859Z,2.90
2018-03-08T04:41:40.076Z,2.90
2018-03-08T04:44:18.759Z,3.00
2018-03-08T04:46:47.040Z,3.00
2018-03-08T04:49:15.263Z,2.90
2018-03-08T04:51:43.585Z,2.90
2018-03-08T04:54:11.873Z,2.90
2018-03-08T04:59:40.930Z,2.90
2018-03-08T05:02:09.150Z,2.90
2018-03-08T05:04:37.407Z,2.90
2018-03-08T05:07:05.702Z,2.90
2018-03-08T05:09:34.414Z,2.90
2018-03-08T05:12:02.762Z,3.00
2018-03-08T05:14:31.037Z,2.90
2018-03-08T05:16:59.264Z,2.90
2018-03-08T05:19:27.542Z,2.90
2018-03-08T05:21:56.524Z,2.90
2018-03-08T05:27:26.151Z,2.90
2018-03-08T05:29:54.482Z,2.90
2018-03-08T05:32:22.717Z,2.90
2018-03-08T05:34:50.970Z,2.90
2018-03-08T05:37:19.213Z,2.90
2018-03-08T05:40:18.143Z,2.90
2018-03-08T05:42:46.368Z,2.90
2018-03-08T05:45:14.572Z,3.00
2018-03-08T05:47:42.925Z,3.00
2018-03-08T05:50:11.158Z,3.00
2018-03-08T05:55:39.465Z,3.00
2018-03-08T05:58:08.493Z,3.00
2018-03-08T06:00:36.756Z,2.90
2018-03-08T06:03:05.864Z,2.90
2018-03-08T06:05:34.108Z,2.90
2018-03-08T06:08:18.685Z,2.90
2018-03-08T06:10:46.991Z,2.90
2018-03-08T06:13:15.233Z,2.90
2018-03-08T06:15:43.609Z,2.90
2018-03-08T06:18:13.410Z,2.90
2018-03-08T06:20:41.718Z,2.90
2018-03-08T06:23:10.019Z,2.90
2018-03-08T06:25:38.253Z,3.00
2018-03-08T06:28:06.479Z,3.00
2018-03-08T06:30:34.725Z,3.00
2018-03-08T06:33:02.985Z,3.00
2018-03-08T06:35:31.201Z,3.00
2018-03-08T06:37:59.421Z,3.10
2018-03-08T06:40:27.697Z,3.10
2018-03-08T06:42:56.135Z,3.10
2018-03-08T06:45:24.458Z,3.10
2018-03-08T06:47:52.680Z,3.10
2018-03-08T06:50:20.965Z,3.10
2018-03-08T06:52:49.195Z,3.20
2018-03-08T06:55:17.423Z,3.20
2018-03-08T06:57:46.553Z,3.30
2018-03-08T07:00:15.302Z,3.20
2018-03-08T07:02:43.675Z,3.30
2018-03-08T07:05:12.610Z,3.30
2018-03-08T07:07:40.834Z,3.30
2018-03-08T07:10:09.108Z,3.50
2018-03-08T07:12:37.345Z,3.70
2018-03-08T07:15:05.552Z,3.80
2018-03-08T07:17:33.829Z,3.90
2018-03-08T07:23:19.469Z,4.00
2018-03-08T07:29:17.854Z,3.80
2018-03-08T07:35:17.419Z,3.80
2018-03-08T07:50:00.579Z,3.90
2018-03-08T07:52:30.218Z,4.10
2018-03-08T07:54:58.452Z,4.10
2018-03-08T07:57:27.434Z,4.10
2018-03-08T08:00:19.031Z,4.20
2018-03-08T08:02:47.297Z,4.20
2018-03-08T08:18:51.086Z,4.60
2018-03-08T08:21:19.351Z,4.70
2018-03-08T08:23:47.595Z,4.70
2018-03-08T08:26:16.578Z,5.00
2018-03-08T08:28:44.885Z,5.00
2018-03-08T08:31:13.221Z,5.00
2018-03-08T08:33:41.516Z,5.20
2018-03-08T08:36:10.507Z,5.30
2018-03-08T08:38:39.553Z,5.30
2018-03-08T08:41:07.764Z,5.30
2018-03-08T08:43:36.078Z,5.30
2018-03-08T08:46:04.354Z,5.40
2018-03-08T08:48:32.617Z,5.50
2018-03-08T08:51:00.839Z,5.40
2018-03-08T08:53:29.055Z,5.40
2018-03-08T08:55:58.081Z,5.40
2018-03-08T08:58:26.302Z,5.40
2018-03-08T09:00:54.511Z,5.40
2018-03-08T09:03:23.517Z,5.60
2018-03-08T09:05:51.780Z,5.60
2018-03-08T09:08:19.981Z,5.60
2018-03-08T09:15:23.205Z,5.70
2018-03-08T09:17:51.426Z,5.70
2018-03-08T09:20:20.419Z,5.80
2018-03-08T09:22:49.423Z,5.80
2018-03-08T09:25:19.956Z,5.80
2018-03-08T09:27:49.122Z,5.90
2018-03-08T09:30:18.126Z,5.90
2018-03-08T09:32:46.428Z,5.90
2018-03-08T09:35:14.682Z,6.00
2018-03-08T09:37:43.837Z,6.00
2018-03-08T09:40:12.162Z,6.00
2018-03-08T09:42:41.177Z,6.10
2018-03-08T09:45:09.481Z,6.10
2018-03-08T09:47:37.825Z,6.10
2018-03-08T09:50:06.056Z,6.20
2018-03-08T09:52:34.499Z,6.30
2018-03-08T09:55:02.759Z,6.30
2018-03-08T09:57:31.069Z,6.40
2018-03-08T09:59:59.355Z,6.40
2018-03-08T10:02:27.573Z,6.60
2018-03-08T10:04:55.788Z,6.60
2018-03-08T10:07:24.095Z,6.70
2018-03-08T10:09:52.412Z,6.90
2018-03-08T10:12:20.670Z,6.90
2018-03-08T10:14:49.645Z,7.00
2018-03-08T10:17:18.760Z,6.90
2018-03-08T10:19:47.852Z,6.90
2018-03-08T10:22:20.647Z,6.90
2018-03-08T10:24:48.915Z,6.90
2018-03-08T10:27:20.071Z,7.00
2018-03-08T10:29:48.396Z,7.10
2018-03-08T10:32:16.618Z,7.20
2018-03-08T10:34:44.893Z,7.30
2018-03-08T10:37:14.049Z,7.40
2018-03-08T10:39:42.384Z,7.40
2018-03-08T10:42:10.596Z,7.50
2018-03-08T10:44:38.804Z,7.50
2018-03-08T10:47:07.918Z,7.60
2018-03-08T10:52:36.001Z,7.60
2018-03-08T10:55:04.203Z,7.60
2018-03-08T10:57:32.412Z,7.60
2018-03-08T11:00:00.692Z,7.60
2018-03-08T11:05:29.581Z,7.70
2018-03-08T11:07:58.560Z,7.80
2018-03-08T11:10:26.783Z,7.70
2018-03-08T11:12:55.832Z,7.80
2018-03-08T11:15:24.061Z,7.80
2018-03-08T11:17:52.340Z,7.80
2018-03-08T11:20:20.603Z,7.90
2018-03-08T11:23:19.326Z,7.90
2018-03-08T11:26:18.162Z,7.90
2018-03-08T11:32:18.090Z,7.90
2018-03-08T11:38:17.760Z,7.90
2018-03-08T11:43:44.009Z,7.80
2018-03-08T11:46:12.286Z,7.80
2018-03-08T11:48:41.309Z,7.70
2018-03-08T11:51:09.761Z,7.70
2018-03-08T11:53:38.066Z,7.70
2018-03-08T11:56:06.318Z,7.70
2018-03-08T11:58:34.569Z,7.60
2018-03-08T12:01:02.861Z,7.60
2018-03-08T12:03:31.226Z,7.60
2018-03-08T12:06:01.648Z,7.70
2018-03-08T12:08:30.809Z,7.80
2018-03-08T12:10:59.137Z,7.80
2018-03-08T12:13:27.344Z,7.70
2018-03-08T12:15:55.564Z,7.70
2018-03-08T12:18:24.618Z,7.60
2018-03-08T12:20:53.514Z,7.50
2018-03-08T12:23:21.728Z,7.60
2018-03-08T12:25:51.524Z,7.60
2018-03-08T12:28:20.535Z,7.60
2018-03-08T12:30:48.909Z,7.60
2018-03-08T12:33:18.132Z,7.60
2018-03-08T12:35:46.427Z,7.60
2018-03-08T12:38:14.646Z,7.50
2018-03-08T12:43:43.816Z,7.40
2018-03-08T12:46:12.051Z,7.50
2018-03-08T12:48:41.095Z,7.50
2018-03-08T12:51:09.345Z,7.50
2018-03-08T12:53:37.557Z,7.50
2018-03-08T12:56:06.593Z,7.60
2018-03-08T12:58:34.824Z,7.50
2018-03-08T13:01:03.179Z,7.50
2018-03-08T13:24:46.088Z,7.50
2018-03-08T14:10:11.700Z,8.50
2018-03-08T14:28:07.513Z,8.30
2018-03-08T14:39:37.391Z,9.00
2018-03-08T14:42:20.340Z,8.90
2018-03-08T14:45:18.426Z,8.80
2018-03-08T14:48:12.971Z,8.90
2018-03-08T14:50:41.763Z,8.80
2018-03-08T14:53:19.731Z,8.90
2018-03-08T14:55:48.116Z,9.10
2018-03-08T15:01:16.706Z,9.20
2018-03-08T15:13:17.985Z,9.60
2018-03-08T15:22:17.948Z,9.70
2018-03-08T15:34:18.203Z,9.70
2018-03-08T15:37:06.517Z,9.90
2018-03-08T16:00:39.833Z,10.00
2018-03-08T16:03:08.040Z,10.10
2018-03-08T16:05:36.294Z,10.10
2018-03-08T16:21:52.416Z,10.00
2018-03-08T16:24:20.676Z,10.00
2018-03-08T16:27:18.907Z,9.90
2018-03-08T16:30:17.621Z,9.90
2018-03-08T16:32:49.425Z,9.80
2018-03-08T16:35:18.366Z,9.70
2018-03-08T16:37:50.356Z,9.70
2018-03-08T16:40:20.122Z,9.70
2018-03-08T16:43:17.906Z,9.50
2018-03-08T16:52:18.427Z,9.30
2018-03-08T16:58:17.858Z,9.30
2018-03-08T17:01:12.604Z,9.40
2018-03-08T17:34:04.555Z,8.70
2018-03-08T17:41:14.790Z,8.60
2018-03-08T18:02:18.032Z,8.10
2018-03-08T18:08:18.049Z,7.90
2018-03-08T18:11:13.999Z,7.80
2018-03-08T18:17:19.125Z,7.80
2018-03-08T18:23:18.185Z,7.50
2018-03-08T18:26:18.182Z,7.10
2018-03-08T18:28:46.440Z,7.40
2018-03-08T18:31:14.654Z,7.40
2018-03-08T18:33:42.872Z,7.60
2018-03-08T18:36:11.987Z,7.70
2018-03-08T18:38:40.210Z,7.70
2018-03-08T18:41:08.473Z,7.70
2018-03-08T18:46:37.276Z,7.50
2018-03-08T18:49:05.502Z,7.40
2018-03-08T18:51:33.775Z,7.60
2018-03-08T18:54:02.784Z,7.60
2018-03-08T18:56:31.001Z,7.60
2018-03-08T18:58:59.336Z,7.70
2018-03-08T19:01:27.713Z,7.60
2018-03-08T19:03:55.916Z,7.60
2018-03-08T19:06:24.137Z,7.60
2018-03-08T19:08:53.149Z,7.30
2018-03-08T19:11:21.436Z,7.30
2018-03-08T19:14:19.836Z,7.20
2018-03-08T19:17:18.536Z,7.30
2018-03-08T19:19:46.801Z,7.20
2018-03-08T19:22:21.199Z,7.20
2018-03-08T19:25:18.025Z,7.20
2018-03-08T19:27:46.237Z,7.30
2018-03-08T19:30:20.777Z,7.10
2018-03-08T19:33:19.175Z,7.20
2018-03-08T19:35:47.500Z,7.10
2018-03-08T19:38:21.846Z,7.10
2018-03-08T19:40:50.227Z,6.70
2018-03-08T19:43:18.478Z,6.50
2018-03-08T19:45:46.865Z,6.50
2018-03-08T19:48:15.125Z,6.30
2018-03-08T19:50:43.376Z,6.30
2018-03-08T19:53:19.546Z,6.20
2018-03-08T19:55:47.771Z,6.20
2018-03-08T19:58:15.991Z,6.20
2018-03-08T20:00:44.269Z,6.30
2018-03-08T20:03:12.592Z,6.30
2018-03-08T20:05:40.814Z,6.40
2018-03-08T20:08:19.631Z,6.30
2018-03-08T20:10:49.385Z,6.10
2018-03-08T20:13:17.606Z,6.10
2018-03-08T20:15:46.746Z,6.00
2018-03-08T20:18:14.966Z,6.00
2018-03-08T20:20:44.047Z,6.10
2018-03-08T20:23:12.375Z,6.10
2018-03-08T20:25:40.599Z,6.10
2018-03-08T20:28:08.849Z,5.90
2018-03-08T20:30:37.052Z,6.00
2018-03-08T20:33:05.270Z,6.10
2018-03-08T20:38:34.557Z,5.90
2018-03-08T20:41:03.568Z,5.80
2018-03-08T20:43:32.591Z,5.80
2018-03-08T20:46:00.853Z,5.80
2018-03-08T20:48:29.058Z,5.70
2018-03-08T20:50:57.280Z,5.70
2018-03-08T20:53:26.289Z,5.80
2018-03-08T20:55:54.501Z,5.80
2018-03-08T20:58:22.844Z,5.80
2018-03-08T21:00:51.112Z,5.80
2018-03-08T21:03:19.535Z,5.70
2018-03-08T21:06:18.142Z,5.70
2018-03-08T21:08:46.373Z,5.50
2018-03-08T21:11:14.599Z,5.50
2018-03-08T21:13:43.727Z,5.40
2018-03-08T21:16:12.002Z,5.40
2018-03-08T21:18:40.285Z,5.40
2018-03-08T21:21:08.860Z,5.40
2018-03-08T21:23:37.132Z,5.30
2018-03-08T21:26:05.352Z,5.30
2018-03-08T21:28:34.274Z,5.30
2018-03-08T21:31:19.788Z,5.10
2018-03-08T21:33:48.058Z,5.10
2018-03-08T21:36:16.277Z,5.10
2018-03-08T21:38:44.510Z,5.00
2018-03-08T21:41:12.894Z,4.90
2018-03-08T21:43:41.723Z,5.10
2018-03-08T21:46:09.966Z,5.10
2018-03-08T21:48:38.378Z,5.00
2018-03-08T21:51:06.625Z,5.00
2018-03-08T21:53:34.856Z,5.10
2018-03-08T21:56:03.867Z,4.90
2018-03-08T21:58:32.083Z,4.90
2018-03-08T22:01:20.332Z,5.00
2018-03-08T22:03:49.478Z,4.80
2018-03-08T22:06:25.011Z,4.80
2018-03-08T22:08:54.045Z,5.00
2018-03-08T22:11:22.274Z,5.00
2018-03-08T22:14:18.261Z,4.80
2018-03-08T22:16:46.489Z,4.80
2018-03-08T22:19:14.723Z,4.90
2018-03-08T22:21:42.980Z,4.80
2018-03-08T22:24:11.216Z,4.80
2018-03-08T22:29:40.784Z,4.80
2018-03-08T22:32:09.014Z,4.80
2018-03-08T22:34:37.235Z,4.80
2018-03-08T22:37:05.490Z,4.80
2018-03-08T22:39:33.736Z,4.70
2018-03-08T22:42:01.959Z,4.60
2018-03-08T22:44:30.294Z,4.70
2018-03-08T22:46:58.516Z,4.60
2018-03-08T22:49:26.817Z,4.60
2018-03-08T22:51:55.853Z,4.40
2018-03-08T22:54:24.110Z,4.40
2018-03-08T22:57:18.158Z,4.60
2018-03-08T22:59:46.446Z,4.60
2018-03-08T23:02:27.990Z,4.60
2018-03-08T23:04:56.317Z,4.60
2018-03-08T23:07:25.308Z,4.50
2018-03-08T23:09:54.618Z,4.40
2018-03-08T23:12:23.077Z,4.40
2018-03-08T23:14:52.089Z,4.30
2018-03-08T23:17:20.368Z,4.30
2018-03-08T23:19:48.674Z,3.80
2018-03-08T23:22:20.533Z,4.20
2018-03-08T23:24:48.806Z,4.40
2018-03-08T23:27:17.057Z,4.20
2018-03-08T23:29:45.485Z,4.10
2018-03-08T23:32:13.746Z,4.00
2018-03-08T23:34:41.953Z,4.20
2018-03-08T23:37:19.488Z,4.20
2018-03-08T23:39:47.797Z,4.20
2018-03-08T23:42:16.016Z,4.30
2018-03-08T23:44:44.310Z,4.20
2018-03-08T23:47:12.553Z,4.30
2018-03-08T23:49:41.602Z,4.30
2018-03-08T23:52:09.867Z,4.30
2018-03-08T23:54:38.153Z,4.40
2018-03-08T23:57:19.915Z,4.10
